This is the latest recevied weather packets stored in our database for station/object OM8AGG-10. If no packets are shown the sender has not sent any weather packets the latest 1 day(s).
| Time | Temp. | Humidity | Pressure | Rain* | Wind** | Luminosity | Snow |
|---|---|---|---|---|---|---|---|
| 1778088909 | 20° C | 46% | 1011.6 hPa | - | - | - | - |
| 1778087109 | 21.11° C | 39% | 1011.6 hPa | - | - | - | - |
| 1778086209 | 21.67° C | 38% | 1011.6 hPa | - | - | - | - |
| 1778076308 | 23.89° C | 34% | 1012.3 hPa | - | - | - | - |
| 1778075408 | 24.44° C | 33% | 1012.4 hPa | - | - | - | - |
| 1778074508 | 23.89° C | 33% | 1012.4 hPa | - | - | - | - |
| 1778073608 | 25.56° C | 33% | 1012.4 hPa | - | - | - | - |
| 1778064607 | 23.33° C | 37% | 1013.3 hPa | - | - | - | - |
| 1778063707 | 22.78° C | 38% | 1013.5 hPa | - | - | - | - |
| 1778062807 | 22.22° C | 38% | 1013.4 hPa | - | - | - | - |
| 1778061907 | 23.33° C | 39% | 1013.6 hPa | - | - | - | - |
| 1778054709 | 19.44° C | 51% | 1013.7 hPa | - | - | - | - |
| 1778050204 | 18.33° C | 55% | 1013.6 hPa | - | - | - | - |
| 1778049304 | 17.22° C | 54% | 1013.5 hPa | - | - | - | - |
| 1778040303 | 9.44° C | 81% | 1012.5 hPa | - | - | - | - |
| 1778038503 | 6.67° C | 90% | 1012.7 hPa | - | - | - | - |
| 1778035803 | 7.22° C | 84% | 1012.8 hPa | - | - | - | - |
| 1778034903 | 6.11° C | 88% | 1012.9 hPa | - | - | - | - |
| 1778025902 | 7.78° C | 78% | 1012.8 hPa | - | - | - | - |
| 1778025002 | 7.22° C | 79% | 1012.8 hPa | - | - | - | - |
| 1778015101 | 11.67° C | 54% | 1012.4 hPa | - | - | - | - |
| 1778014201 | 12.22° C | 53% | 1012.4 hPa | - | - | - | - |
| 1778013301 | 12.22° C | 52% | 1012.4 hPa | - | - | - | - |
* Rain since midnight (hover to see other rain measurements)
** Current wind speed in m/s (hover to see current wind gust speed)